Time;durP1;ratioP1;P1;durP2;ratioP2;P2;SDS_P1;SDS_P2;PMS_P1;PMS_P2;Temp;Humidity;BMP_temperature;BMP_pressure;BME280_temperature;BME280_humidity;BME280_pressure;Samples;Min_cycle;Max_cycle;Signal;HPM_P1;HPM_P2
2023/04/09 00:01:34;;;;;;;32.75;21.27;;;;;;;8.48;84.88;100996.94;1667187;86;27407;-51
2023/04/09 00:04:02;;;;;;;35.13;20.85;;;;;;;8.48;85.06;100999.63;1696198;83;25623;-50
2023/04/09 00:06:30;;;;;;;30.90;20.97;;;;;;;8.47;85.27;101000.73;1696290;84;25475;-49
2023/04/09 00:08:56;;;;;;;31.93;20.95;;;;;;;8.48;85.18;100999.63;1698635;81;26223;-49
2023/04/09 00:11:23;;;;;;;32.42;20.43;;;;;;;8.48;85.20;100999.63;1764803;81;25508;-50
2023/04/09 00:13:50;;;;;;;30.23;20.80;;;;;;;8.47;85.22;100994.79;1730797;82;27353;-50
2023/04/09 00:16:17;;;;;;;35.03;21.50;;;;;;;8.48;85.14;101002.33;1730691;82;25681;-50
2023/04/09 00:18:44;;;;;;;34.90;21.37;;;;;;;8.45;85.22;100991.57;1730753;82;25551;-48
2023/04/09 00:21:11;;;;;;;36.68;21.52;;;;;;;8.45;85.26;100992.13;1751337;81;26702;-49
2023/04/09 00:23:38;;;;;;;33.67;20.82;;;;;;;8.44;85.31;100985.91;1730814;82;25533;-50
2023/04/09 00:26:05;;;;;;;28.83;19.75;;;;;;;8.41;85.35;100983.20;1730755;82;27509;-49
2023/04/09 00:28:33;;;;;;;27.55;19.15;;;;;;;8.40;85.25;100986.17;1730697;82;25645;-51
2023/04/09 00:30:59;;;;;;;29.87;18.70;;;;;;;8.38;85.26;100987.00;1730729;82;25563;-49
2023/04/09 00:33:26;;;;;;;32.60;21.50;;;;;;;8.35;85.09;100992.94;1730817;82;26177;-48
2023/04/09 00:35:53;;;;;;;43.42;25.35;;;;;;;8.33;85.04;100993.77;1730780;82;25579;-49
2023/04/09 00:38:20;;;;;;;47.23;27.25;;;;;;;8.32;84.87;100994.83;1725932;82;27983;-49
2023/04/09 00:40:51;;;;;;;41.28;24.95;;;;;;;8.29;84.81;100989.98;1730657;82;25617;-49
2023/04/09 00:43:18;;;;;;;36.13;22.60;;;;;;;8.26;84.66;100990.02;1730777;82;25522;-50
2023/04/09 00:45:45;;;;;;;38.70;23.62;;;;;;;8.25;84.99;100987.05;1730776;82;25631;-52
2023/04/09 00:48:13;;;;;;;32.08;20.62;;;;;;;8.22;85.37;100983.02;1730873;82;25586;-53
2023/04/09 00:50:41;;;;;;;32.35;20.62;;;;;;;8.20;85.43;100987.06;1730892;82;27541;-49
2023/04/09 00:53:10;;;;;;;31.68;19.55;;;;;;;8.18;85.44;100983.84;1730827;82;25642;-50
2023/04/09 00:55:39;;;;;;;31.10;18.27;;;;;;;8.16;85.58;100986.81;1731127;82;25659;-49
2023/04/09 00:58:07;;;;;;;28.02;18.77;;;;;;;8.14;85.62;100979.55;1731048;82;26240;-51
2023/04/09 01:00:33;;;;;;;30.48;19.82;;;;;;;8.11;85.64;100985.48;1730945;82;25582;-51
2023/04/09 01:03:00;;;;;;;28.02;18.52;;;;;;;8.10;85.74;100988.45;1730883;82;27397;-53
2023/04/09 01:06:05;;;;;;;27.73;18.62;;;;;;;8.09;85.81;100997.09;1730800;82;25463;-51
2023/04/09 01:08:40;;;;;;;29.82;18.42;;;;;;;8.07;85.47;100993.87;1730881;82;25531;-48
2023/04/09 01:11:29;;;;;;;34.35;22.60;;;;;;;8.07;85.70;100993.87;1724500;82;26114;-50
2023/04/09 01:14:34;;;;;;;33.13;21.17;;;;;;;8.06;85.88;100996.28;1754681;81;25443;-52
2023/04/09 01:17:05;;;;;;;31.87;20.55;;;;;;;8.06;85.67;101004.36;1756862;81;27901;-50
2023/04/09 01:19:52;;;;;;;36.88;22.30;;;;;;;8.06;85.58;101001.67;1756898;81;25594;-50
2023/04/09 01:22:53;;;;;;;34.27;21.30;;;;;;;8.04;85.29;101001.94;1756766;81;25602;-50
2023/04/09 01:25:46;;;;;;;30.35;20.27;;;;;;;8.05;85.51;101000.05;1756839;81;26171;-49
2023/04/09 01:28:27;;;;;;;28.50;20.12;;;;;;;8.03;85.52;100994.92;1755866;81;25563;-49
2023/04/09 01:30:59;;;;;;;32.95;20.17;;;;;;;8.03;85.17;100994.13;1746473;81;27732;-49
2023/04/09 01:33:29;;;;;;;29.70;19.17;;;;;;;8.02;85.02;100994.68;1722726;83;25798;-49
2023/04/09 01:35:57;;;;;;;29.85;19.20;;;;;;;8.00;85.13;100991.98;1756818;81;25600;-49
2023/04/09 01:38:25;;;;;;;30.40;20.05;;;;;;;8.00;85.06;101000.89;1756801;81;25620;-49
2023/04/09 01:40:53;;;;;;;30.62;19.48;;;;;;;7.99;85.48;101001.95;1723076;83;25586;-49
2023/04/09 01:43:21;;;;;;;32.33;20.48;;;;;;;7.97;85.74;101006.82;1757072;81;27376;-50
2023/04/09 01:45:48;;;;;;;30.12;20.30;;;;;;;7.96;85.62;101007.89;1756705;81;25662;-50
2023/04/09 01:48:15;;;;;;;35.88;22.52;;;;;;;7.96;85.64;101007.89;1756787;81;25592;-52
2023/04/09 01:50:42;;;;;;;38.73;26.87;;;;;;;7.98;85.61;101013.00;1756729;81;25638;-50
2023/04/09 01:53:08;;;;;;;38.85;24.95;;;;;;;7.98;85.62;101014.35;1756839;81;25539;-53
2023/04/09 01:55:35;;;;;;;36.93;20.97;;;;;;;7.98;85.73;101010.31;1723087;83;27337;-50
2023/04/09 01:58:01;;;;;;;31.85;20.65;;;;;;;7.98;85.74;101017.05;1722961;83;33202;-49
2023/04/09 02:00:33;;;;;;;31.02;19.77;;;;;;;7.97;85.72;101017.59;1756752;81;25526;-52
2023/04/09 02:03:22;;;;;;;31.90;19.10;;;;;;;7.95;85.66;101014.89;1756754;81;25683;-51
2023/04/09 02:06:01;;;;;;;;;;;;;;;7.94;85.53;101014.64;1752516;81;25484;-48
2023/04/09 02:08:30;;;;;;;26.50;17.42;;;;;;;7.91;85.52;101015.19;1744798;82;29717;-49
2023/04/09 02:10:58;;;;;;;28.52;18.60;;;;;;;7.86;85.55;101015.45;1690426;83;25646;-48
2023/04/09 02:13:27;;;;;;;32.63;20.10;;;;;;;7.84;85.85;101005.48;1676445;84;25471;-49
2023/04/09 02:15:55;;;;;;;29.92;18.73;;;;;;;7.80;86.16;101003.64;1667214;86;27815;-50
2023/04/09 02:18:29;;;;;;;28.85;18.37;;;;;;;7.79;86.39;101003.36;1667323;86;25420;-50
2023/04/09 02:20:58;;;;;;;32.42;20.05;;;;;;;7.79;86.16;101016.27;1696363;84;27694;-50
2023/04/09 02:23:28;;;;;;;27.37;18.00;;;;;;;7.79;86.24;101025.70;1696275;84;25639;-53
2023/04/09 02:25:56;;;;;;;27.82;18.02;;;;;;;7.78;86.22;101020.06;1667342;86;25586;-49
2023/04/09 02:28:22;;;;;;;31.42;20.25;;;;;;;7.78;86.40;101022.76;1696336;82;25615;-50
2023/04/09 02:30:50;;;;;;;30.20;18.80;;;;;;;7.77;86.74;101018.44;1696340;84;25470;-51
2023/04/09 02:33:16;;;;;;;28.32;19.27;;;;;;;7.74;86.78;101017.63;1667241;86;28040;-51
2023/04/09 02:35:43;;;;;;;30.08;19.37;;;;;;;7.74;86.91;101014.94;1636597;86;25657;-50
2023/04/09 02:38:12;;;;;;;26.55;17.57;;;;;;;7.77;87.02;101009.56;1696344;84;25477;-53
2023/04/09 02:40:42;;;;;;;31.42;18.95;;;;;;;7.78;87.22;101011.98;1696415;84;34800;-49
2023/04/09 02:43:10;;;;;;;32.38;20.20;;;;;;;7.81;87.08;101009.27;1667253;86;25436;-50
2023/04/09 02:45:37;;;;;;;29.15;19.37;;;;;;;7.83;87.01;101008.45;1696317;83;27315;-53
2023/04/09 02:48:04;;;;;;;28.67;19.23;;;;;;;7.84;86.76;101002.80;1667173;86;25698;-51
2023/04/09 02:50:31;;;;;;;28.85;19.30;;;;;;;7.87;86.79;101001.45;1674634;84;25464;-51
2023/04/09 02:52:57;;;;;;;31.05;20.27;;;;;;;7.88;86.67;101004.40;1667215;86;26600;-50
2023/04/09 02:55:24;;;;;;;28.50;18.82;;;;;;;7.90;86.96;101009.52;1696353;84;25418;-50
2023/04/09 02:57:51;;;;;;;27.62;18.75;;;;;;;7.90;87.02;101006.83;1696337;84;28290;-48
2023/04/09 03:00:17;;;;;;;31.85;19.85;;;;;;;7.89;86.90;101003.88;1667156;86;25675;-49
2023/04/09 03:02:44;;;;;;;29.80;18.90;;;;;;;7.89;87.31;100997.95;1696323;84;25591;-48
2023/04/09 03:05:11;;;;;;;31.40;20.30;;;;;;;7.89;87.20;100998.49;1667183;86;25967;-51
2023/04/09 03:07:39;;;;;;;31.05;19.48;;;;;;;7.88;87.36;100992.83;1696348;82;25594;-49
2023/04/09 03:10:06;;;;;;;29.65;19.92;;;;;;;7.86;87.37;100992.55;1701489;82;28032;-51
2023/04/09 03:12:33;;;;;;;29.02;20.02;;;;;;;7.85;87.44;100986.12;1680484;84;25749;-48
2023/04/09 03:15:00;;;;;;;28.27;18.95;;;;;;;7.84;87.29;100990.67;1702585;83;25605;-50
2023/04/09 03:17:30;;;;;;;33.30;19.55;;;;;;;7.80;87.21;100988.27;1702533;84;25947;-49
2023/04/09 03:19:56;;;;;;;33.88;19.48;;;;;;;7.75;86.85;100996.37;1702613;83;25404;-49
2023/04/09 03:22:23;;;;;;;33.05;20.17;;;;;;;7.71;86.95;100994.48;1650224;85;28032;-51
2023/04/09 03:24:50;;;;;;;33.83;21.00;;;;;;;7.66;86.77;100996.12;1687249;85;25660;-50
2023/04/09 03:27:17;;;;;;;31.33;20.52;;;;;;;7.61;86.60;100992.09;1687328;85;25463;-52
2023/04/09 03:29:44;;;;;;;30.20;18.23;;;;;;;7.54;86.36;101000.16;1702545;84;26200;-50
2023/04/09 03:32:11;;;;;;;29.70;19.17;;;;;;;7.47;86.27;101003.13;1702566;84;25602;-49
2023/04/09 03:34:38;;;;;;;30.27;19.70;;;;;;;7.40;86.04;101007.98;1704218;84;27734;-50
2023/04/09 03:37:04;;;;;;;33.85;20.32;;;;;;;7.31;85.97;101003.68;1702446;84;26027;-49
2023/04/09 03:39:32;;;;;;;28.73;18.82;;;;;;;7.23;85.94;101010.94;1680421;84;25646;-50
2023/04/09 03:41:58;;;;;;;29.42;18.50;;;;;;;7.14;85.85;101016.59;1680387;84;26160;-51
2023/04/09 03:44:24;;;;;;;29.80;18.75;;;;;;;7.05;85.97;101006.36;1702567;84;32353;-50
2023/04/09 03:46:51;;;;;;;28.10;17.32;;;;;;;7.01;85.88;101009.30;1702549;84;27320;-52
2023/04/09 03:49:17;;;;;;;27.60;18.17;;;;;;;6.99;85.90;101005.27;1702477;84;25654;-53
2023/04/09 03:51:43;;;;;;;29.75;18.27;;;;;;;6.96;85.87;101002.56;1702554;83;25433;-51
2023/04/09 03:54:09;;;;;;;28.23;18.70;;;;;;;6.91;86.09;100995.84;1680650;84;25589;-52
2023/04/09 03:56:36;;;;;;;32.95;19.77;;;;;;;6.87;86.01;100994.22;1702618;83;25631;-51
2023/04/09 03:59:02;;;;;;;32.67;20.48;;;;;;;6.83;85.93;101000.42;1680490;84;28293;-49
2023/04/09 04:01:28;;;;;;;36.30;20.97;;;;;;;6.77;86.07;100991.52;1702460;84;25666;-49
2023/04/09 04:03:55;;;;;;;33.95;20.17;;;;;;;6.70;86.14;100998.48;1702533;84;25543;-51
2023/04/09 04:06:22;;;;;;;34.90;21.25;;;;;;;6.65;86.28;100997.14;1702592;84;26307;-49
2023/04/09 04:08:49;;;;;;;40.85;22.20;;;;;;;6.60;86.53;101003.84;1702600;84;25483;-52
2023/04/09 04:11:16;;;;;;;37.80;22.10;;;;;;;6.57;86.91;101004.91;1680515;84;27279;-48
2023/04/09 04:13:43;;;;;;;35.83;21.00;;;;;;;6.56;86.81;101005.45;1702564;84;25608;-48
2023/04/09 04:16:10;;;;;;;39.18;22.67;;;;;;;6.54;87.28;101004.38;1702566;84;25413;-49
2023/04/09 04:18:37;;;;;;;35.33;20.90;;;;;;;6.56;87.38;101004.66;1702487;84;25627;-50
2023/04/09 04:21:04;;;;;;;35.10;21.52;;;;;;;6.57;87.61;101008.94;1702580;84;25409;-49
2023/04/09 04:23:31;;;;;;;37.05;21.68;;;;;;;6.59;88.01;101013.00;1702669;84;28116;-49
2023/04/09 04:25:58;;;;;;;37.15;21.85;;;;;;;6.59;88.02;101008.97;1680696;84;25510;-49
2023/04/09 04:28:26;;;;;;;37.67;21.57;;;;;;;6.61;88.06;101012.73;1702677;84;25409;-48
2023/04/09 04:30:53;;;;;;;37.00;21.42;;;;;;;6.62;88.17;101015.13;1702633;84;25630;-48
2023/04/09 04:33:20;;;;;;;34.58;21.15;;;;;;;6.63;87.96;101015.41;1680494;84;25585;-48
2023/04/09 04:35:47;;;;;;;37.28;21.02;;;;;;;6.64;88.14;101015.70;1702714;84;27414;-51
2023/04/09 04:38:14;;;;;;;32.80;20.17;;;;;;;6.66;88.17;101016.78;1702702;84;25414;-51
2023/04/09 04:40:42;;;;;;;33.60;19.90;;;;;;;6.66;88.20;101024.84;1702806;84;25644;-52
2023/04/09 04:43:10;;;;;;;31.95;19.60;;;;;;;6.67;88.26;101026.45;1702775;84;25624;-52
2023/04/09 04:45:37;;;;;;;36.20;20.88;;;;;;;6.68;88.58;101027.53;1680495;84;25523;-52
2023/04/09 04:48:04;;;;;;;32.08;20.45;;;;;;;6.72;88.82;101027.28;1702762;84;27454;-53
2023/04/09 04:50:31;;;;;;;32.67;20.05;;;;;;;6.77;89.27;101027.81;1680834;84;26042;-50
2023/04/09 04:52:58;;;;;;;32.10;21.12;;;;;;;6.83;89.43;101031.34;1702658;84;25515;-53
2023/04/09 04:55:25;;;;;;;32.23;19.27;;;;;;;6.90;89.65;101039.96;1702680;84;26187;-49
2023/04/09 04:57:52;;;;;;;31.25;19.75;;;;;;;6.96;89.95;101035.39;1702749;84;25600;-49
2023/04/09 05:00:19;;;;;;;30.37;19.98;;;;;;;7.02;90.05;101037.83;1702680;84;28077;-49
2023/04/09 05:02:46;;;;;;;30.48;18.90;;;;;;;7.08;90.04;101035.94;1702602;84;25642;-49
2023/04/09 05:05:13;;;;;;;33.18;21.05;;;;;;;7.13;90.06;101041.33;1702677;84;25410;-49
2023/04/09 05:07:40;;;;;;;31.10;20.35;;;;;;;7.17;89.90;101036.22;1702647;84;25621;-49
2023/04/09 05:10:08;;;;;;;28.60;18.07;;;;;;;7.23;90.07;101039.19;1702662;84;25611;-49
2023/04/09 05:12:35;;;;;;;30.02;17.92;;;;;;;7.27;90.04;101046.47;1702644;84;27318;-48
2023/04/09 05:15:03;;;;;;;28.80;18.20;;;;;;;7.34;90.21;101048.07;1702601;84;25624;-49
2023/04/09 05:17:30;;;;;;;27.45;18.07;;;;;;;7.37;90.29;101041.64;1702653;84;25628;-49
2023/04/09 05:19:57;;;;;;;26.82;17.77;;;;;;;7.44;90.58;101045.38;1702575;84;25632;-48
2023/04/09 05:22:24;;;;;;;27.17;18.10;;;;;;;7.50;90.81;101040.83;1702707;84;25608;-48
2023/04/09 05:24:51;;;;;;;28.85;19.37;;;;;;;7.58;90.88;101046.47;1702670;84;28104;-49
2023/04/09 05:27:19;;;;;;;32.58;20.30;;;;;;;7.60;90.38;101039.47;1702645;84;25714;-52
2023/04/09 05:29:46;;;;;;;33.48;21.12;;;;;;;7.63;90.48;101041.08;1702803;84;25567;-51
2023/04/09 05:32:14;;;;;;;35.75;23.50;;;;;;;7.69;90.60;101041.88;1702700;84;25722;-51
2023/04/09 05:34:41;;;;;;;34.18;22.13;;;;;;;7.74;90.87;101035.69;1702715;84;25625;-49
2023/04/09 05:37:07;;;;;;;31.93;21.10;;;;;;;7.82;91.17;101034.59;1702659;84;27357;-48
2023/04/09 05:39:33;;;;;;;36.63;23.32;;;;;;;7.95;91.50;101029.71;1702589;83;25839;-49
2023/04/09 05:42:00;;;;;;;35.23;22.40;;;;;;;8.09;92.28;101036.16;1702618;84;25614;-48
2023/04/09 05:44:27;;;;;;;35.90;22.13;;;;;;;8.28;93.18;101033.66;1702567;84;25681;-50
2023/04/09 05:46:54;;;;;;;31.15;20.35;;;;;;;8.53;93.99;101033.31;1702701;84;25655;-49
2023/04/09 05:49:21;;;;;;;37.23;21.95;;;;;;;8.69;93.17;101034.86;1702670;84;27308;-48
2023/04/09 05:51:50;;;;;;;31.52;19.10;;;;;;;8.88;93.17;101036.92;1702579;84;25654;-53
2023/04/09 05:54:17;;;;;;;29.40;19.25;;;;;;;9.02;92.47;101039.24;1702799;84;25587;-53
2023/04/09 05:56:45;;;;;;;29.40;18.80;;;;;;;9.21;93.05;101035.88;1706593;84;25616;-52
2023/04/09 05:59:11;;;;;;;25.52;16.97;;;;;;;9.33;92.42;101039.02;1702728;84;25418;-53
2023/04/09 06:01:39;;;;;;;23.70;15.05;;;;;;;9.46;92.25;101039.73;1702708;84;27657;-51
2023/04/09 06:04:07;;;;;;;23.12;14.85;;;;;;;9.54;90.49;101046.43;1702537;84;25711;-49
2023/04/09 06:06:36;;;;;;;21.50;14.15;;;;;;;9.63;90.49;101044.72;1702635;84;25555;-49
2023/04/09 06:09:03;;;;;;;22.13;15.58;;;;;;;9.70;89.75;101046.56;1702751;83;34810;-48
2023/04/09 06:11:32;;;;;;;20.85;15.23;;;;;;;9.79;89.47;101047.27;1707838;83;25460;-49
2023/04/09 06:13:59;;;;;;;21.75;15.13;;;;;;;9.88;89.51;101045.02;1723142;83;27937;-49
2023/04/09 06:16:25;;;;;;;22.75;15.70;;;;;;;9.99;89.38;101046.27;1722946;83;25406;-49
2023/04/09 06:18:53;;;;;;;22.65;15.45;;;;;;;10.05;88.95;101045.13;1723039;83;25568;-51
2023/04/09 06:21:20;;;;;;;25.02;14.98;;;;;;;10.13;88.34;101055.85;1723047;83;26267;-48
2023/04/09 06:23:47;;;;;;;22.55;15.45;;;;;;;10.16;87.95;101055.28;1756816;81;25605;-50
2023/04/09 06:26:14;;;;;;;26.52;15.70;;;;;;;10.23;87.68;101057.91;1756774;81;27298;-49
2023/04/09 06:28:42;;;;;;;22.80;14.38;;;;;;;10.29;87.41;101059.45;1749724;81;25756;-49
2023/04/09 06:31:09;;;;;;;21.75;15.30;;;;;;;10.36;87.46;101059.13;1746128;82;25512;-49
2023/04/09 06:33:36;;;;;;;21.30;14.03;;;;;;;10.40;86.51;101059.36;1756778;81;26456;-51
2023/04/09 06:36:04;;;;;;;21.35;15.30;;;;;;;10.46;86.41;101068.48;1723082;83;25393;-49
2023/04/09 06:38:31;;;;;;;21.50;14.33;;;;;;;10.52;86.51;101059.77;1751862;81;28039;-49
2023/04/09 06:40:58;;;;;;;19.20;14.23;;;;;;;10.60;86.71;101071.28;1722963;83;25938;-49
2023/04/09 06:43:24;;;;;;;22.17;14.45;;;;;;;10.71;86.37;101072.50;1756745;81;25727;-50
2023/04/09 06:45:51;;;;;;;22.73;15.68;;;;;;;10.83;85.97;101068.84;1724960;81;25981;-50
2023/04/09 06:48:18;;;;;;;20.52;15.15;;;;;;;11.01;87.17;101063.95;1756795;81;25418;-49
2023/04/09 06:50:45;;;;;;;20.75;14.68;;;;;;;11.26;87.51;101062.55;1756759;81;27409;-51
2023/04/09 06:53:14;;;;;;;22.17;14.80;;;;;;;11.43;86.89;101066.87;1749672;81;25708;-51
2023/04/09 06:55:40;;;;;;;22.87;15.87;;;;;;;11.57;85.76;101069.62;1723283;83;25494;-50
2023/04/09 06:58:07;;;;;;;23.02;16.37;;;;;;;11.69;84.87;101070.50;1722958;83;27798;-49
2023/04/09 07:00:34;;;;;;;24.63;15.85;;;;;;;11.83;84.76;101074.59;1756800;81;25665;-49
2023/04/09 07:03:00;;;;;;;20.62;15.05;;;;;;;11.98;84.57;101075.71;1723011;83;27950;-50
2023/04/09 07:05:27;;;;;;;19.50;14.53;;;;;;;12.09;83.43;101074.99;1756658;81;25451;-49
2023/04/09 07:07:55;;;;;;;24.30;15.63;;;;;;;12.09;81.98;101084.48;1723066;83;25576;-50
2023/04/09 07:10:22;;;;;;;19.87;14.30;;;;;;;12.06;81.67;101087.22;1756706;81;25762;-48
2023/04/09 07:12:49;;;;;;;19.17;14.25;;;;;;;12.09;81.59;101092.05;1742898;81;25579;-50
2023/04/09 07:15:16;;;;;;;23.32;16.12;;;;;;;12.13;81.49;101094.97;1702589;83;28060;-51
2023/04/09 07:17:43;;;;;;;20.60;14.80;;;;;;;12.15;81.13;101091.40;1704028;84;25751;-52
2023/04/09 07:20:12;;;;;;;24.37;15.10;;;;;;;12.08;80.01;101088.28;1702594;84;25637;-49
2023/04/09 07:22:39;;;;;;;22.98;15.60;;;;;;;11.98;79.81;101086.55;1702688;84;25725;-52
2023/04/09 07:25:08;;;;;;;22.37;14.95;;;;;;;11.90;79.47;101090.74;1702592;84;25629;-49
2023/04/09 07:27:34;;;;;;;23.12;15.32;;;;;;;11.85;79.59;101086.77;1702537;84;27383;-50
2023/04/09 07:30:00;;;;;;;20.32;14.47;;;;;;;11.85;79.96;101086.77;1702441;84;25602;-51
2023/04/09 07:32:27;;;;;;;24.12;15.32;;;;;;;11.81;79.87;101087.09;1702559;84;25614;-52
2023/04/09 07:34:56;;;;;;;22.85;15.40;;;;;;;11.88;80.68;101094.28;1702543;84;25626;-48
2023/04/09 07:37:22;;;;;;;25.68;16.52;;;;;;;11.93;80.03;101092.07;1702585;84;25676;-49
2023/04/09 07:39:50;;;;;;;23.30;15.88;;;;;;;12.00;80.77;101091.13;1702679;84;27980;-48
2023/04/09 07:42:17;;;;;;;22.70;15.28;;;;;;;12.11;80.11;101097.18;1702498;83;25413;-49
2023/04/09 07:44:44;;;;;;;21.45;15.45;;;;;;;12.21;79.30;101092.09;1702644;84;25576;-51
2023/04/09 07:47:11;;;;;;;20.23;14.53;;;;;;;12.25;79.66;101092.56;1702540;84;26292;-49
2023/04/09 07:49:39;;;;;;;19.05;13.88;;;;;;;12.42;79.61;101087.10;1687350;85;25658;-51
2023/04/09 07:52:06;;;;;;;18.90;13.83;;;;;;;12.66;79.21;101083.60;1687279;85;27409;-51
2023/04/09 07:54:34;;;;;;;20.25;14.95;;;;;;;12.94;79.05;101086.29;1687249;85;25640;-50
2023/04/09 07:57:01;;;;;;;19.60;14.28;;;;;;;13.22;79.20;101082.92;1687284;85;25653;-49
2023/04/09 07:59:29;;;;;;;19.17;13.30;;;;;;;13.47;79.17;101079.39;1665712;85;26150;-50
2023/04/09 08:01:56;;;;;;;19.82;14.03;;;;;;;13.82;79.02;101081.78;1642786;85;25605;-49
2023/04/09 08:04:24;;;;;;;19.17;13.38;;;;;;;14.15;78.21;101077.37;1687305;85;27940;-49
2023/04/09 08:06:52;;;;;;;17.40;12.78;;;;;;;14.61;79.03;101082.66;1702489;84;25635;-49
2023/04/09 08:09:20;;;;;;;17.17;12.95;;;;;;;15.00;76.31;101081.77;1702576;84;25547;-49
2023/04/09 08:11:49;;;;;;;18.25;14.03;;;;;;;15.03;74.15;101087.13;1702545;83;25932;-50
2023/04/09 08:14:17;;;;;;;19.17;13.43;;;;;;;14.93;72.99;101086.88;1702812;84;25485;-51
2023/04/09 08:16:47;;;;;;;19.42;13.60;;;;;;;14.91;72.41;101089.94;1680479;84;27365;-49
2023/04/09 08:19:16;;;;;;;17.92;13.22;;;;;;;14.91;72.22;101092.67;1702457;84;25628;-49
2023/04/09 08:21:43;;;;;;;16.95;12.47;;;;;;;14.88;72.17;101093.30;1702681;84;25625;-51
2023/04/09 08:24:11;;;;;;;16.48;12.80;;;;;;;14.85;71.16;101081.67;1702529;84;26190;-49
2023/04/09 08:26:42;;;;;;;17.60;12.93;;;;;;;14.82;70.72;101086.95;1702581;84;25402;-49
2023/04/09 08:29:12;;;;;;;16.97;12.73;;;;;;;14.77;69.92;101091.20;1702565;84;27378;-50
2023/04/09 08:31:39;;;;;;;17.20;13.40;;;;;;;14.58;69.54;101086.80;1702467;84;26027;-50
2023/04/09 08:34:06;;;;;;;16.55;12.30;;;;;;;14.60;70.44;101077.77;1702526;84;25612;-50
2023/04/09 08:36:35;;;;;;;17.73;13.05;;;;;;;14.74;70.60;101080.36;1680493;84;25592;-51
2023/04/09 08:39:03;;;;;;;17.10;12.37;;;;;;;14.87;70.50;101079.42;1704143;84;25477;-50
2023/04/09 08:41:30;;;;;;;19.25;13.08;;;;;;;15.07;70.57;101084.02;1702559;84;27372;-50
2023/04/09 08:43:58;;;;;;;16.30;11.73;;;;;;;15.21;70.61;101086.02;1702461;84;25434;-51
2023/04/09 08:46:26;;;;;;;18.77;12.85;;;;;;;15.43;69.35;101093.22;1702510;84;25556;-51
2023/04/09 08:48:53;;;;;;;18.30;13.68;;;;;;;15.70;68.50;101089.91;1702510;84;25701;-51
2023/04/09 08:51:22;;;;;;;16.55;12.40;;;;;;;15.80;68.03;101092.31;1702555;84;25454;-52
2023/04/09 08:53:59;;;;;;;19.60;12.93;;;;;;;15.85;67.27;101098.14;1702560;84;27828;-51
2023/04/09 08:56:27;;;;;;;17.30;11.95;;;;;;;15.87;66.46;101095.34;1702195;84;25490;-50
2023/04/09 08:58:55;;;;;;;17.30;12.90;;;;;;;15.84;65.29;101100.08;1702541;84;25446;-53
2023/04/09 09:01:26;;;;;;;19.62;12.55;;;;;;;15.75;65.26;101100.67;1702477;84;25632;-54
2023/04/09 09:04:06;;;;;;;17.80;12.37;;;;;;;15.66;65.37;101097.94;1702535;84;25640;-52
2023/04/09 09:06:35;;;;;;;15.48;12.10;;;;;;;15.62;65.22;101092.08;1701950;84;28062;-51
2023/04/09 09:09:14;;;;;;;20.05;13.83;;;;;;;15.62;65.07;101094.80;1702612;84;25698;-50
2023/04/09 09:11:49;;;;;;;18.12;12.78;;;;;;;15.63;64.96;101095.84;1702740;84;25644;-52
2023/04/09 09:14:19;;;;;;;19.70;12.73;;;;;;;15.69;65.30;101098.63;1681902;83;25557;-51
2023/04/09 09:17:03;;;;;;;17.55;13.03;;;;;;;15.87;65.40;101091.25;1680417;85;25176;-49
2023/04/09 09:19:32;;;;;;;20.02;12.95;;;;;;;16.47;67.01;101091.91;1712591;83;26859;-50
2023/04/09 09:22:02;;;;;;;19.57;12.63;;;;;;;17.33;65.26;101088.34;1682513;85;25503;-53
2023/04/09 09:24:31;;;;;;;15.35;11.20;;;;;;;18.03;64.55;101085.73;1696888;84;25574;-50
2023/04/09 09:26:59;;;;;;;16.48;11.83;;;;;;;18.74;62.24;101093.23;1712654;83;32483;-53
2023/04/09 09:29:29;;;;;;;17.02;12.10;;;;;;;18.92;60.49;101085.59;1682094;83;25482;-52
2023/04/09 09:31:56;;;;;;;14.83;11.18;;;;;;;18.92;58.98;101088.91;1712553;83;28054;-49
2023/04/09 09:34:25;;;;;;;14.50;11.12;;;;;;;18.78;57.35;101095.53;1712444;83;25723;-50
2023/04/09 09:36:52;;;;;;;13.72;10.95;;;;;;;18.40;56.94;101091.20;1712562;83;25464;-50
2023/04/09 09:39:20;;;;;;;15.45;10.95;;;;;;;18.21;56.91;101092.36;1712540;83;25592;-51
2023/04/09 09:41:47;;;;;;;16.27;11.07;;;;;;;18.01;57.36;101091.30;1682965;83;25428;-51
2023/04/09 09:44:32;;;;;;;17.62;11.57;;;;;;;18.01;57.36;101091.30;1712529;83;27346;-52
2023/04/09 09:47:02;;;;;;;19.45;14.83;;;;;;;17.89;57.39;101089.34;1712520;83;25557;-50
2023/04/09 09:49:28;;;;;;;20.30;13.38;;;;;;;17.74;56.95;101084.73;1712514;83;25513;-50
2023/04/09 09:51:59;;;;;;;14.75;11.00;;;;;;;17.61;57.31;101091.88;1712477;83;25628;-52
2023/04/09 09:54:29;;;;;;;17.15;11.60;;;;;;;17.54;56.93;101086.95;1712576;83;25650;-52
2023/04/09 09:57:00;;;;;;;14.18;10.25;;;;;;;17.52;57.32;101090.57;1712645;83;26926;-51
2023/04/09 09:59:35;;;;;;;17.20;12.35;;;;;;;17.46;57.42;101093.30;1712477;83;25469;-51
2023/04/09 10:02:09;;;;;;;15.43;10.82;;;;;;;17.57;57.79;101086.28;1712555;83;25507;-51
2023/04/09 10:04:37;;;;;;;13.20;10.30;;;;;;;17.69;58.30;101084.95;1712581;83;25627;-50
2023/04/09 10:07:06;;;;;;;14.50;10.82;;;;;;;17.87;57.63;101081.47;1712567;83;25582;-50
2023/04/09 10:09:44;;;;;;;15.20;10.63;;;;;;;18.33;58.84;101081.40;1712570;83;27991;-51
2023/04/09 10:12:11;;;;;;;15.70;9.45;;;;;;;19.44;58.15;101077.05;1712455;83;25438;-55
2023/04/09 10:14:39;;;;;;;11.18;9.05;;;;;;;20.69;57.91;101078.04;1668002;83;25469;-53
2023/04/09 10:17:07;;;;;;;13.62;8.15;;;;;;;21.56;55.32;101074.32;1696348;84;25826;-51
2023/04/09 10:19:39;;;;;;;10.32;8.85;;;;;;;22.51;54.61;101074.14;1667345;86;25229;-50
2023/04/09 10:22:11;;;;;;;16.55;8.58;;;;;;;23.44;52.65;101069.79;1637594;85;27070;-52
2023/04/09 10:24:38;;;;;;;15.95;8.55;;;;;;;24.36;51.46;101071.59;1696290;83;25552;-51
2023/04/09 10:27:14;;;;;;;8.53;7.42;;;;;;;24.92;48.94;101066.80;1667322;86;25635;-51
2023/04/09 10:29:46;;;;;;;8.85;6.90;;;;;;;24.50;46.75;101065.36;1696341;84;26372;-51
2023/04/09 10:32:25;;;;;;;11.68;7.10;;;;;;;24.07;45.89;101061.71;1674400;84;25429;-51
2023/04/09 10:34:53;;;;;;;9.13;7.55;;;;;;;24.26;46.61;101067.58;1696503;84;28631;-51
2023/04/09 10:37:23;;;;;;;11.70;7.15;;;;;;;24.69;44.97;101071.22;1636954;86;33141;-50
2023/04/09 10:39:51;;;;;;;11.70;7.90;;;;;;;24.36;44.46;101069.62;1699950;84;25600;-51
2023/04/09 10:42:26;;;;;;;12.10;8.78;;;;;;;24.09;43.66;101069.03;1696455;84;25606;-50
2023/04/09 10:45:15;;;;;;;10.60;8.15;;;;;;;23.44;43.53;101064.86;1696130;84;25504;-50
2023/04/09 10:47:45;;;;;;;12.30;8.53;;;;;;;22.75;44.10;101064.63;1696357;84;27311;-54
2023/04/09 10:50:23;;;;;;;13.62;9.13;;;;;;;22.21;44.59;101062.43;1696279;84;25604;-51
2023/04/09 10:52:53;;;;;;;13.15;10.08;;;;;;;21.81;44.77;101063.73;1667368;86;25443;-50
2023/04/09 10:55:41;;;;;;;13.40;8.93;;;;;;;21.43;45.35;101060.67;1696263;84;25606;-50
2023/04/09 10:58:11;;;;;;;12.20;9.23;;;;;;;21.21;45.82;101063.59;1696409;84;25643;-50
2023/04/09 11:00:41;;;;;;;10.93;8.15;;;;;;;21.10;46.13;101063.19;1667133;86;28062;-52
2023/04/09 11:03:27;;;;;;;11.60;8.75;;;;;;;20.91;46.29;101055.14;1696233;84;25379;-52
2023/04/09 11:06:08;;;;;;;11.75;8.58;;;;;;;20.69;46.49;101058.80;1696360;84;25477;-52
2023/04/09 11:08:41;;;;;;;11.33;8.15;;;;;;;20.31;46.00;101055.34;1696386;84;25707;-50
2023/04/09 11:11:08;;;;;;;9.80;7.28;;;;;;;19.87;46.16;101052.16;1696374;84;25464;-52
2023/04/09 11:13:36;;;;;;;10.32;7.33;;;;;;;19.58;46.84;101051.39;1667168;83;28081;-50
2023/04/09 11:16:05;;;;;;;8.18;7.33;;;;;;;19.40;47.11;101045.41;1696213;84;25621;-51
2023/04/09 11:18:33;;;;;;;;;;;;;;;19.42;47.69;101054.66;1679448;84;25652;-50
2023/04/09 11:21:05;;;;;;;11.22;6.90;;;;;;;19.73;48.02;101044.88;1676647;84;26158;-50
2023/04/09 11:23:33;;;;;;;9.28;6.40;;;;;;;19.98;47.82;101047.50;1696352;84;25468;-50